Time;durP1;ratioP1;P1;durP2;ratioP2;P2;SDS_P1;SDS_P2;PMS_P1;PMS_P2;Temp;Humidity;BMP_temperature;BMP_pressure;BME280_temperature;BME280_humidity;BME280_pressure;Samples;Min_cycle;Max_cycle;Signal;HPM_P1;HPM_P2
2021/04/24 00:00:00;;;;;;;20.02;9.30;;;;;;;2.60;93.25;96467.84;1035784;28;20013;-70
2021/04/24 00:00:31;;;;;;;18.55;8.75;;;;;;;2.59;93.55;96466.25;1035891;28;20014;-70
2021/04/24 00:01:02;;;;;;;19.00;9.15;;;;;;;2.57;93.94;96470.03;1033603;28;20018;-70
2021/04/24 00:01:32;;;;;;;27.58;9.10;;;;;;;2.56;93.92;96471.81;1031009;28;20022;-69
2021/04/24 00:02:03;;;;;;;18.65;8.88;;;;;;;2.53;93.56;96463.66;1031346;28;20015;-69
2021/04/24 00:02:36;;;;;;;15.86;8.70;;;;;;;2.58;94.18;96464.66;1027307;28;20492;-69
2021/04/24 00:03:08;;;;;;;20.52;8.68;;;;;;;2.57;93.95;96468.22;1026852;28;20018;-69
2021/04/24 00:03:38;;;;;;;19.92;9.42;;;;;;;2.54;94.11;96466.03;1027001;28;20372;-68
2021/04/24 00:04:09;;;;;;;17.95;8.55;;;;;;;2.54;94.56;96460.06;1024352;28;20027;-69
2021/04/24 00:04:39;;;;;;;19.70;9.73;;;;;;;2.48;94.53;96458.22;1026920;28;20538;-69
2021/04/24 00:05:23;;;;;;;21.13;9.57;;;;;;;2.49;94.63;96465.81;1018466;29;20115;-70
2021/04/24 00:05:54;;;;;;;20.76;8.86;;;;;;;2.46;94.84;96455.84;1020856;28;20028;-69
2021/04/24 00:06:24;;;;;;;17.50;8.65;;;;;;;2.46;94.84;96461.03;1018682;29;20028;-69
2021/04/24 00:06:55;;;;;;;27.25;10.02;;;;;;;2.49;94.80;96452.06;1026641;28;20020;-69
2021/04/24 00:07:25;;;;;;;17.98;8.35;;;;;;;2.46;94.70;96460.22;1030351;28;20019;-69
2021/04/24 00:08:00;;;;;;;19.25;8.93;;;;;;;2.47;94.92;96454.84;1025545;28;20531;-68
2021/04/24 00:08:31;;;;;;;16.96;8.60;;;;;;;2.49;95.07;96455.47;1029399;28;20023;-69
2021/04/24 00:09:02;;;;;;;22.08;9.48;;;;;;;2.48;95.18;96455.63;1025806;28;20105;-69
2021/04/24 00:09:32;;;;;;;27.00;8.66;;;;;;;2.48;94.84;96450.47;1023499;28;20028;-69
2021/04/24 00:10:03;;;;;;;19.73;9.60;;;;;;;2.49;94.89;96449.50;1024744;28;20032;-69
2021/04/24 00:10:36;;;;;;;15.78;7.56;;;;;;;2.52;94.51;96447.31;1017838;29;20473;-69
2021/04/24 00:11:06;;;;;;;17.56;8.48;;;;;;;2.53;93.99;96454.06;1020630;29;20031;-69
2021/04/24 00:11:37;;;;;;;16.58;8.35;;;;;;;2.57;93.48;96452.69;1018474;29;20087;-69
2021/04/24 00:12:07;;;;;;;19.10;7.93;;;;;;;2.56;93.63;96451.09;1015101;29;20031;-67
2021/04/24 00:12:38;;;;;;;14.85;8.52;;;;;;;2.56;93.54;96445.13;1018806;29;20430;-69
2021/04/24 00:13:09;;;;;;;19.13;8.50;;;;;;;2.54;93.72;96447.09;1014871;29;20035;-69
2021/04/24 00:13:39;;;;;;;19.15;9.70;;;;;;;2.53;93.69;96446.31;1018852;29;20055;-69
2021/04/24 00:14:09;;;;;;;22.50;8.73;;;;;;;2.51;93.96;96445.69;1012424;29;20475;-69
2021/04/24 00:14:40;;;;;;;22.15;9.68;;;;;;;2.53;94.06;96448.09;1024008;28;20751;-69
2021/04/24 00:15:12;;;;;;;25.92;8.90;;;;;;;2.50;94.23;96445.91;1026152;28;20429;-69
2021/04/24 00:15:42;;;;;;;18.56;9.30;;;;;;;2.50;94.08;96441.50;1026880;28;20011;-69
2021/04/24 00:16:13;;;;;;;17.33;8.82;;;;;;;2.52;94.16;96447.31;1022254;29;20416;-69
2021/04/24 00:16:43;;;;;;;23.45;9.30;;;;;;;2.52;94.18;96444.72;1016062;29;20038;-68
2021/04/24 00:17:14;;;;;;;19.45;8.75;;;;;;;2.50;94.38;96441.50;1019350;29;20016;-68
2021/04/24 00:17:44;;;;;;;21.48;9.40;;;;;;;2.50;94.43;96441.50;1022856;28;20022;-69
2021/04/24 00:18:15;;;;;;;21.88;9.50;;;;;;;2.50;94.79;96446.69;1021406;28;20446;-70
2021/04/24 00:18:45;;;;;;;16.88;8.57;;;;;;;2.48;95.08;96440.94;1022851;28;20016;-68
2021/04/24 00:19:16;;;;;;;20.67;9.20;;;;;;;2.46;95.02;96440.31;1031950;28;20048;-69
2021/04/24 00:19:46;;;;;;;20.88;8.95;;;;;;;2.45;95.13;96437.91;1031443;28;20295;-67
2021/04/24 00:20:18;;;;;;;21.42;8.60;;;;;;;2.43;95.35;96440.69;1030803;28;20073;-69
2021/04/24 00:20:49;;;;;;;22.88;9.38;;;;;;;2.42;95.32;96444.28;1023233;28;20109;-70
2021/04/24 00:21:19;;;;;;;22.48;8.85;;;;;;;2.37;95.53;96441.47;1024760;28;20022;-69
2021/04/24 00:21:50;;;;;;;19.63;9.85;;;;;;;2.36;95.85;96440.66;1030558;28;20522;-69
2021/04/24 00:22:20;;;;;;;17.67;9.55;;;;;;;2.34;95.68;96441.84;1031914;28;20038;-70
2021/04/24 00:22:51;;;;;;;17.77;10.23;;;;;;;2.34;96.43;96444.44;1026480;28;20030;-69
2021/04/24 00:23:22;;;;;;;20.08;9.10;;;;;;;2.33;96.09;96435.88;1030414;28;20105;-69
2021/04/24 00:23:52;;;;;;;17.15;8.63;;;;;;;2.18;95.98;96422.28;1028199;28;20022;-66
2021/04/24 00:24:22;;;;;;;27.10;9.88;;;;;;;2.28;96.11;96437.44;1018835;29;20031;-69
2021/04/24 00:24:53;;;;;;;20.05;9.80;;;;;;;2.27;96.54;96438.44;1022112;28;20023;-69
2021/04/24 00:25:23;;;;;;;19.80;8.23;;;;;;;2.26;96.66;96442.03;1022178;29;20050;-69
2021/04/24 00:25:54;;;;;;;17.30;9.07;;;;;;;2.23;96.54;96439.81;1019015;28;20024;-70
2021/04/24 00:26:25;;;;;;;18.17;9.30;;;;;;;2.23;96.79;96439.81;1027502;28;20022;-70
2021/04/24 00:26:55;;;;;;;14.80;8.70;;;;;;;2.17;96.63;96435.41;1026031;28;20027;-70
2021/04/24 00:27:26;;;;;;;21.00;10.02;;;;;;;2.20;96.65;96437.59;1026828;28;20026;-70
2021/04/24 00:27:57;;;;;;;18.42;8.90;;;;;;;2.19;96.49;96446.38;1026390;28;20033;-69
2021/04/24 00:28:27;;;;;;;16.40;9.48;;;;;;;2.17;96.85;96440.56;1022740;28;20058;-70
2021/04/24 00:28:58;;;;;;;17.70;9.10;;;;;;;2.17;96.84;96440.56;1015180;29;20351;-70
2021/04/24 00:29:28;;;;;;;26.05;8.60;;;;;;;2.12;96.83;96429.00;1019223;29;20064;-69
2021/04/24 00:29:59;;;;;;;20.83;9.48;;;;;;;2.10;97.06;96430.19;1018737;28;20024;-70
2021/04/24 00:30:29;;;;;;;24.73;10.27;;;;;;;2.06;97.29;96428.97;1023254;28;20027;-70
2021/04/24 00:30:59;;;;;;;20.25;10.18;;;;;;;2.08;97.54;96432.97;1026654;28;20359;-69
2021/04/24 00:31:30;;;;;;;18.70;9.20;;;;;;;2.07;97.97;96436.53;1026005;28;20033;-69
2021/04/24 00:32:01;;;;;;;25.80;9.75;;;;;;;2.08;98.21;96430.41;1025484;28;20049;-69
2021/04/24 00:32:31;;;;;;;23.00;9.75;;;;;;;2.07;98.37;96426.19;1018929;29;20036;-69
2021/04/24 00:33:02;;;;;;;20.15;9.77;;;;;;;2.06;98.52;96434.94;1014767;29;20474;-69
2021/04/24 00:33:33;;;;;;;20.10;9.43;;;;;;;2.03;98.85;96432.75;1014619;29;20465;-68
2021/04/24 00:34:04;;;;;;;21.85;9.77;;;;;;;2.03;98.79;96435.34;1018965;29;20798;-69
2021/04/24 00:34:34;;;;;;;21.52;9.98;;;;;;;2.03;98.77;96429.34;1018708;28;20275;-69
2021/04/24 00:35:06;;;;;;;21.67;10.20;;;;;;;2.01;98.80;96437.34;1026158;28;20085;-70
2021/04/24 00:35:36;;;;;;;20.10;9.60;;;;;;;1.97;98.82;96423.16;1028975;28;20158;-69
2021/04/24 00:36:07;;;;;;;23.50;10.45;;;;;;;2.02;98.72;96427.78;1022766;29;20539;-69
2021/04/24 00:36:37;;;;;;;20.85;10.23;;;;;;;2.00;99.11;96427.94;1018857;29;20074;-69
2021/04/24 00:37:08;;;;;;;24.40;10.85;;;;;;;2.01;98.66;96426.97;1019421;29;20023;-69
2021/04/24 00:37:38;;;;;;;21.73;10.32;;;;;;;1.96;99.36;96418.97;1019393;29;20035;-69
2021/04/24 00:38:09;;;;;;;18.42;9.80;;;;;;;1.98;99.04;96422.19;1015668;29;20032;-69
2021/04/24 00:38:39;;;;;;;20.88;11.02;;;;;;;1.99;99.43;96423.78;1027951;28;20093;-69
2021/04/24 00:39:10;;;;;;;25.75;11.63;;;;;;;1.99;99.36;96426.34;1027468;28;20139;-69
2021/04/24 00:39:40;;;;;;;22.33;10.80;;;;;;;1.98;99.35;96423.94;1025623;28;20117;-69
2021/04/24 00:40:11;;;;;;;23.58;11.57;;;;;;;1.78;100.00;96400.56;1025845;28;20113;-69
2021/04/24 00:40:41;;;;;;;24.33;11.23;;;;;;;1.99;99.80;96422.97;1018896;29;20016;-69
2021/04/24 00:41:12;;;;;;;25.73;13.30;;;;;;;1.94;99.93;96412.38;1022626;28;20509;-68
2021/04/24 00:41:43;;;;;;;34.35;13.23;;;;;;;1.94;99.76;96410.59;1027272;28;20033;-69
2021/04/24 00:42:13;;;;;;;25.88;12.68;;;;;;;1.97;100.00;96424.94;1018615;29;20082;-69
2021/04/24 00:42:45;;;;;;;41.10;21.63;;;;;;;1.96;100.00;96413.78;1019619;29;20028;-69
2021/04/24 00:43:16;;;;;;;29.40;16.46;;;;;;;1.96;99.97;96420.78;1012640;29;20026;-69
2021/04/24 00:43:47;;;;;;;44.98;21.42;;;;;;;1.98;99.93;96421.34;1019613;28;20024;-69
2021/04/24 00:44:17;;;;;;;37.67;18.77;;;;;;;1.91;100.00;96410.97;1027282;28;20448;-69
2021/04/24 00:44:49;;;;;;;38.80;17.83;;;;;;;1.92;100.00;96411.78;1025097;28;20077;-69
2021/04/24 00:45:21;;;;;;;40.50;18.67;;;;;;;1.89;100.00;96413.75;1022194;29;20066;-69
2021/04/24 00:45:51;;;;;;;36.00;19.14;;;;;;;1.91;100.00;96413.56;1019155;29;20054;-69
2021/04/24 00:46:22;;;;;;;39.50;21.50;;;;;;;1.89;100.00;96415.56;1018451;29;20043;-69
2021/04/24 00:46:52;;;;;;;44.83;22.67;;;;;;;1.89;100.00;96410.38;1015626;29;20442;-69
2021/04/24 00:47:23;;;;;;;47.05;22.92;;;;;;;1.82;100.00;96399.19;1019080;29;20023;-69
2021/04/24 00:47:54;;;;;;;39.20;21.02;;;;;;;1.90;99.75;96417.16;1017750;29;20417;-69
2021/04/24 00:48:24;;;;;;;32.28;15.93;;;;;;;1.92;99.07;96404.03;1023840;28;20054;-69
2021/04/24 00:48:55;;;;;;;40.40;20.50;;;;;;;1.89;99.45;96408.59;1026935;28;20496;-69
2021/04/24 00:49:25;;;;;;;36.13;15.80;;;;;;;1.81;99.16;96397.59;1032313;28;20083;-69
2021/04/24 00:49:56;;;;;;;30.25;15.25;;;;;;;1.85;98.74;96401.41;1024384;28;20083;-69
2021/04/24 00:50:32;;;;;;;35.55;18.23;;;;;;;1.86;98.50;96413.34;1019037;29;20058;-69
2021/04/24 00:51:04;;;;;;;42.44;20.34;;;;;;;1.85;99.12;96411.75;1018540;29;20023;-69
2021/04/24 00:51:35;;;;;;;46.88;21.90;;;;;;;1.75;99.24;96399.16;1012781;29;20133;-69
2021/04/24 00:52:05;;;;;;;57.38;27.70;;;;;;;1.85;99.99;96406.59;1020648;28;20584;-69
2021/04/24 00:52:36;;;;;;;57.78;26.77;;;;;;;1.88;99.99;96407.00;1026215;28;20039;-69
2021/04/24 00:53:07;;;;;;;53.20;26.48;;;;;;;1.91;100.00;96405.00;1030541;28;20771;-70
2021/04/24 00:53:38;;;;;;;57.10;27.78;;;;;;;1.87;100.00;96407.16;1027280;28;20457;-69
2021/04/24 00:54:08;;;;;;;69.95;29.95;;;;;;;1.86;100.00;96400.41;1029420;28;20034;-69
2021/04/24 00:54:39;;;;;;;70.07;31.85;;;;;;;1.90;100.00;96404.22;1022857;29;20332;-68
2021/04/24 00:55:10;;;;;;;80.00;39.88;;;;;;;1.93;100.00;96401.25;1019616;28;20035;-69
2021/04/24 00:55:41;;;;;;;84.88;36.22;;;;;;;1.89;100.00;96398.22;1026717;28;20082;-69
2021/04/24 00:56:11;;;;;;;72.70;34.30;;;;;;;1.94;100.00;96402.81;1023078;28;20134;-69
2021/04/24 00:56:42;;;;;;;75.38;34.35;;;;;;;1.91;99.99;96398.03;1026492;28;20031;-68
2021/04/24 00:57:13;;;;;;;77.70;35.00;;;;;;;1.87;99.76;96383.88;1030850;28;20018;-69
2021/04/24 00:57:43;;;;;;;87.97;42.17;;;;;;;1.96;99.88;96403.44;1022954;29;20760;-69
2021/04/24 00:58:14;;;;;;;104.97;49.23;;;;;;;2.01;99.66;96403.69;1021271;28;20519;-68
2021/04/24 00:58:45;;;;;;;102.43;45.08;;;;;;;2.02;99.14;96399.31;1011374;29;20040;-70
2021/04/24 00:59:15;;;;;;;105.38;46.55;;;;;;;2.01;99.04;96401.09;1015623;29;20111;-69
2021/04/24 00:59:47;;;;;;;103.03;45.83;;;;;;;2.02;99.40;96402.69;1022683;29;20031;-69
2021/04/24 01:00:18;;;;;;;87.70;39.83;;;;;;;1.99;99.28;96391.91;1022257;29;20330;-69
2021/04/24 01:00:49;;;;;;;89.03;40.92;;;;;;;2.00;99.16;96399.47;1019305;29;20042;-69
2021/04/24 01:01:19;;;;;;;69.28;32.70;;;;;;;2.02;99.24;96391.53;1013665;29;20024;-69
2021/04/24 01:01:50;;;;;;;59.05;25.13;;;;;;;2.04;98.68;96392.13;1022918;28;20796;-69
2021/04/24 01:02:20;;;;;;;55.53;24.77;;;;;;;2.05;98.75;96394.53;1023083;28;20015;-69
2021/04/24 01:02:51;;;;;;;47.70;21.00;;;;;;;2.05;98.99;96399.72;1024116;28;20103;-69
2021/04/24 01:03:22;;;;;;;46.85;17.40;;;;;;;2.04;98.81;96390.34;1027099;28;20047;-69
2021/04/24 01:03:52;;;;;;;38.30;19.25;;;;;;;2.05;98.84;96398.91;1022683;28;20071;-69
2021/04/24 01:04:22;;;;;;;43.40;17.65;;;;;;;1.99;98.80;96382.38;1025342;28;20026;-69
2021/04/24 01:04:53;;;;;;;36.75;14.90;;;;;;;2.03;98.67;96388.75;1027285;28;20015;-68
2021/04/24 01:05:29;;;;;;;34.78;14.73;;;;;;;1.97;98.47;96376.56;1026046;28;20038;-69
2021/04/24 01:06:00;;;;;;;30.92;14.14;;;;;;;2.05;98.31;96396.34;1024886;28;20030;-68
2021/04/24 01:06:30;;;;;;;30.58;13.63;;;;;;;2.01;98.60;96390.75;1019051;29;20035;-69
2021/04/24 01:07:01;;;;;;;29.85;13.63;;;;;;;2.01;98.91;96385.56;1020512;29;20024;-69
2021/04/24 01:07:32;;;;;;;34.12;13.42;;;;;;;1.98;99.02;96388.53;1023203;28;20478;-69
2021/04/24 01:08:03;;;;;;;24.35;11.02;;;;;;;1.94;98.87;96373.56;1027185;28;20015;-69
2021/04/24 01:08:33;;;;;;;22.34;10.36;;;;;;;2.02;98.93;96392.34;1022706;28;20103;-69
2021/04/24 01:09:05;;;;;;;24.98;10.82;;;;;;;2.01;99.01;96390.75;1025675;28;20026;-69
2021/04/24 01:09:35;;;;;;;19.34;10.22;;;;;;;2.02;99.13;96391.53;1026692;28;20025;-69
2021/04/24 01:10:06;;;;;;;30.23;11.95;;;;;;;2.02;99.21;96391.53;1023178;28;20103;-70
2021/04/24 01:10:38;;;;;;;23.28;10.54;;;;;;;2.02;99.30;96384.56;1022710;29;20023;-69
2021/04/24 01:11:09;;;;;;;22.62;10.26;;;;;;;2.03;99.38;96385.38;1021511;29;20027;-70
2021/04/24 01:11:39;;;;;;;23.15;10.85;;;;;;;2.00;98.93;96381.38;1022306;29;20023;-69
2021/04/24 01:12:10;;;;;;;31.58;11.90;;;;;;;2.02;98.89;96383.78;1019188;29;20018;-69
2021/04/24 01:12:42;;;;;;;21.52;10.40;;;;;;;2.03;99.33;96382.78;1022371;28;20016;-69
2021/04/24 01:13:13;;;;;;;23.16;11.16;;;;;;;1.99;99.54;96384.94;1023117;29;20073;-69
2021/04/24 01:13:43;;;;;;;18.22;9.56;;;;;;;2.03;99.56;96383.56;1019411;29;20499;-70
2021/04/24 01:14:14;;;;;;;23.60;9.98;;;;;;;2.01;99.16;96385.56;1022681;28;20031;-69
2021/04/24 01:14:44;;;;;;;17.67;10.75;;;;;;;1.92;99.57;96370.38;1018709;29;20463;-69
2021/04/24 01:15:17;;;;;;;25.10;11.60;;;;;;;2.01;99.46;96382.97;1022194;29;20039;-68
2021/04/24 01:15:48;;;;;;;20.02;10.14;;;;;;;2.00;99.13;96377.97;1019689;29;20027;-69
2021/04/24 01:16:18;;;;;;;23.55;10.05;;;;;;;2.01;99.33;96379.56;1023062;28;20038;-69
2021/04/24 01:16:49;;;;;;;21.92;9.82;;;;;;;2.01;98.95;96379.56;1022691;28;20508;-69
2021/04/24 01:17:19;;;;;;;21.00;10.82;;;;;;;1.93;99.19;96367.59;1019194;29;20031;-69
2021/04/24 01:17:50;;;;;;;16.87;9.93;;;;;;;2.00;98.91;96376.19;1014392;29;20410;-69
2021/04/24 01:18:20;;;;;;;28.40;11.13;;;;;;;2.01;99.01;96382.16;1019377;29;20024;-68
2021/04/24 01:18:51;;;;;;;23.65;11.48;;;;;;;1.99;99.02;96377.19;1022655;28;20023;-69
2021/04/24 01:19:23;;;;;;;22.17;10.38;;;;;;;1.99;98.80;96376.38;1014759;29;20028;-69
2021/04/24 01:19:54;;;;;;;22.50;11.56;;;;;;;1.99;99.43;96379.78;1019209;29;20028;-69
2021/04/24 01:20:24;;;;;;;18.83;10.48;;;;;;;1.96;99.20;96367.22;1022803;29;20031;-69
2021/04/24 01:20:56;;;;;;;18.52;8.80;;;;;;;2.00;98.74;96376.19;1018956;28;20709;-69
2021/04/24 01:21:26;;;;;;;17.16;8.50;;;;;;;2.03;98.57;96377.59;1026465;28;20015;-69
2021/04/24 01:22:07;;;;;;;17.55;9.07;;;;;;;2.07;98.01;96379.59;1022748;29;20035;-69
2021/04/24 01:22:37;;;;;;;18.84;8.40;;;;;;;2.08;98.05;96383.00;1016909;29;20028;-69
2021/04/24 01:23:08;;;;;;;15.23;8.27;;;;;;;2.09;97.57;96372.44;1019419;28;20012;-68
2021/04/24 01:23:38;;;;;;;16.65;9.10;;;;;;;2.09;97.42;96377.63;1020219;29;20024;-69
2021/04/24 01:24:10;;;;;;;19.05;8.98;;;;;;;2.09;97.70;96376.84;1019168;29;20016;-69
2021/04/24 01:24:40;;;;;;;21.04;9.68;;;;;;;2.05;97.82;96376.41;1018792;29;20028;-69
2021/04/24 01:25:25;;;;;;;15.30;9.27;;;;;;;2.04;97.95;96379.97;1022281;29;20038;-69
2021/04/24 01:25:57;;;;;;;17.24;9.64;;;;;;;1.98;98.60;96370.41;1020372;29;20036;-69
2021/04/24 01:26:27;;;;;;;17.34;9.42;;;;;;;1.94;98.96;96374.34;1021164;29;20206;-70
2021/04/24 01:26:58;;;;;;;18.60;9.30;;;;;;;1.94;99.00;96376.94;1022689;29;20492;-69
2021/04/24 01:27:28;;;;;;;22.15;9.32;;;;;;;1.89;98.98;96376.75;1020353;29;20031;-70
2021/04/24 01:27:59;;;;;;;18.02;8.85;;;;;;;1.85;99.33;96370.34;1024723;28;20027;-69
2021/04/24 01:28:30;;;;;;;18.66;9.60;;;;;;;1.84;99.51;96373.91;1022576;29;20525;-69
2021/04/24 01:29:01;;;;;;;19.00;9.57;;;;;;;1.82;99.71;96370.75;1015779;29;20044;-70
2021/04/24 01:29:31;;;;;;;18.54;8.66;;;;;;;1.79;99.85;96374.50;1023006;28;20488;-68
2021/04/24 01:30:07;;;;;;;22.50;9.70;;;;;;;1.77;99.96;96379.06;1026351;28;20052;-69
2021/04/24 01:30:39;;;;;;;18.35;9.68;;;;;;;1.75;100.00;96369.91;1024000;28;20038;-69
2021/04/24 01:31:10;;;;;;;16.98;10.35;;;;;;;1.72;100.00;96372.88;1017561;29;20035;-69
2021/04/24 01:31:40;;;;;;;29.47;10.80;;;;;;;1.70;99.89;96374.84;1015373;29;20032;-69
2021/04/24 01:32:11;;;;;;;17.37;10.57;;;;;;;1.68;100.00;96374.22;1019519;29;20091;-69
2021/04/24 01:32:41;;;;;;;16.07;9.57;;;;;;;1.67;99.95;96370.06;1022726;28;20032;-69
2021/04/24 01:33:12;;;;;;;18.63;9.40;;;;;;;1.65;99.90;96378.81;1028140;28;20384;-69
2021/04/24 01:33:43;;;;;;;17.08;9.68;;;;;;;1.62;99.68;96381.78;1026803;28;20031;-69
2021/04/24 01:34:13;;;;;;;18.73;9.57;;;;;;;1.60;100.00;96370.81;1028202;28;20042;-69
2021/04/24 01:34:44;;;;;;;20.17;10.23;;;;;;;1.59;100.00;96376.97;1031872;28;20534;-69
2021/04/24 01:35:16;;;;;;;18.70;10.00;;;;;;;1.58;100.00;96383.16;1030101;28;20030;-68
2021/04/24 01:35:47;;;;;;;20.88;10.23;;;;;;;1.53;100.00;96377.72;1028061;28;20476;-69
2021/04/24 01:36:17;;;;;;;20.20;9.73;;;;;;;1.54;100.00;96371.59;1026921;28;20066;-70
2021/04/24 01:36:48;;;;;;;17.95;9.40;;;;;;;1.52;100.00;96370.97;1023035;28;20034;-69
2021/04/24 01:37:18;;;;;;;19.30;11.17;;;;;;;1.50;100.00;96372.13;1028894;28;20118;-69
2021/04/24 01:37:49;;;;;;;19.07;9.93;;;;;;;1.54;100.00;96375.94;1028029;28;20049;-69
2021/04/24 01:38:19;;;;;;;16.53;9.50;;;;;;;1.49;100.00;96366.16;1026724;28;20034;-69
2021/04/24 01:38:50;;;;;;;21.13;9.63;;;;;;;1.54;100.00;96376.75;1025293;28;20038;-69
2021/04/24 01:39:20;;;;;;;16.33;9.50;;;;;;;1.47;100.00;96370.72;1022412;28;20473;-69
2021/04/24 01:39:50;;;;;;;16.67;8.73;;;;;;;1.52;100.00;96376.13;1018588;29;20030;-69
2021/04/24 01:40:21;;;;;;;13.90;8.53;;;;;;;1.44;100.00;96363.34;1018854;29;20024;-69
2021/04/24 01:40:52;;;;;;;17.13;8.95;;;;;;;1.54;100.00;96374.19;1018969;29;20030;-69
2021/04/24 01:41:22;;;;;;;20.03;9.30;;;;;;;1.52;100.00;96377.94;1026630;28;20113;-69
2021/04/24 01:41:53;;;;;;;16.13;8.53;;;;;;;1.49;100.00;96379.09;1030726;28;20049;-69
2021/04/24 01:42:23;;;;;;;18.20;9.40;;;;;;;1.47;100.00;96378.47;1026845;28;20034;-68
2021/04/24 01:42:54;;;;;;;17.90;9.50;;;;;;;1.46;100.00;96376.09;1030745;28;20038;-68
2021/04/24 01:43:24;;;;;;;15.80;8.70;;;;;;;1.46;100.00;96370.94;1022491;29;20035;-68
2021/04/24 01:43:55;;;;;;;15.40;8.00;;;;;;;1.40;100.00;96364.72;1010733;29;20080;-69
2021/04/24 01:44:26;;;;;;;17.17;8.43;;;;;;;1.42;100.00;96370.50;1014300;29;20674;-69
2021/04/24 01:44:56;;;;;;;16.50;9.00;;;;;;;1.40;100.00;96367.31;1018912;28;20043;-68
2021/04/24 01:45:26;;;;;;;16.40;9.10;;;;;;;1.37;100.00;96365.88;1024503;28;20026;-70
2021/04/24 01:45:57;;;;;;;18.37;9.20;;;;;;;1.28;100.00;96358.50;1021789;29;20027;-69
2021/04/24 01:46:27;;;;;;;21.90;9.80;;;;;;;1.32;100.00;96362.28;1017643;29;20540;-69
2021/04/24 01:46:58;;;;;;;15.23;9.20;;;;;;;1.32;100.00;96362.28;1018852;29;20059;-69
2021/04/24 01:47:28;;;;;;;17.70;9.40;;;;;;;1.21;100.00;96353.28;1022692;28;20364;-68
2021/04/24 01:47:59;;;;;;;18.50;9.63;;;;;;;1.30;100.00;96372.81;1021857;28;20031;-69
2021/04/24 01:48:29;;;;;;;20.67;10.80;;;;;;;1.27;100.00;96372.38;1022795;29;20038;-69
2021/04/24 01:49:00;;;;;;;17.97;10.73;;;;;;;1.27;100.00;96368.00;1022586;29;20696;-68
2021/04/24 01:49:30;;;;;;;19.20;9.63;;;;;;;1.26;100.00;96366.41;1022207;28;20051;-68
2021/04/24 01:50:01;;;;;;;20.60;10.10;;;;;;;1.27;100.00;96370.59;1023101;28;20030;-69
2021/04/24 01:50:35;;;;;;;20.00;11.67;;;;;;;1.27;100.00;96367.22;1026453;28;20038;-69
2021/04/24 01:51:05;;;;;;;18.38;10.80;;;;;;;1.27;100.00;96368.00;1026833;28;20101;-69
2021/04/24 01:51:36;;;;;;;27.43;11.80;;;;;;;1.28;100.00;96364.44;1022956;28;20086;-70
2021/04/24 01:52:06;;;;;;;22.70;11.30;;;;;;;1.28;100.00;96364.44;1026402;28;20038;-69
2021/04/24 01:52:37;;;;;;;21.97;10.90;;;;;;;1.29;100.00;96367.84;1022842;29;20513;-70
2021/04/24 01:53:10;;;;;;;20.20;10.13;;;;;;;1.30;100.00;96372.00;1022304;28;20409;-70
2021/04/24 01:53:40;;;;;;;20.80;11.10;;;;;;;1.29;100.00;96368.63;1021770;29;20122;-69
2021/04/24 01:54:11;;;;;;;28.37;12.80;;;;;;;1.29;100.00;96362.66;1022652;28;20039;-69
2021/04/24 01:54:41;;;;;;;23.00;12.03;;;;;;;1.28;100.00;96369.63;1026286;28;20033;-69
2021/04/24 01:55:14;;;;;;;32.10;12.30;;;;;;;1.19;100.00;96352.66;1026040;28;20029;-69
2021/04/24 01:55:45;;;;;;;22.50;12.00;;;;;;;1.16;100.00;96351.22;1018536;29;20023;-69
2021/04/24 01:56:16;;;;;;;21.33;12.23;;;;;;;1.23;100.00;96358.25;1022684;28;20034;-70
2021/04/24 01:56:54;;;;;;;27.33;13.03;;;;;;;1.07;100.00;96346.38;1022526;29;20066;-69
2021/04/24 01:57:24;;;;;;;24.17;11.75;;;;;;;1.15;100.00;96352.22;1018824;29;20026;-70
2021/04/24 01:57:56;;;;;;;29.27;12.47;;;;;;;1.11;100.00;96351.00;1017231;29;20417;-67
2021/04/24 01:58:26;;;;;;;22.08;11.90;;;;;;;1.16;100.00;96358.97;1015566;29;20040;-69
2021/04/24 01:58:56;;;;;;;25.07;12.03;;;;;;;1.13;100.00;96355.97;1019852;28;20035;-69
2021/04/24 01:59:28;;;;;;;20.13;11.80;;;;;;;1.17;100.00;96364.94;1022725;29;20046;-70
2021/04/24 01:59:59;;;;;;;20.95;11.90;;;;;;;1.11;100.00;96347.63;1022463;29;20556;-70
2021/04/24 02:00:33;;;;;;;22.73;11.07;;;;;;;1.12;100.00;96349.22;1018536;29;20115;-70
2021/04/24 02:01:08;;;;;;;20.40;12.18;;;;;;;1.20;100.00;96356.03;1019743;29;20031;-70
2021/04/24 02:01:38;;;;;;;22.60;10.75;;;;;;;1.18;100.00;96361.41;1019561;29;20031;-69
2021/04/24 02:02:08;;;;;;;21.53;11.40;;;;;;;1.14;100.00;96355.81;1018819;29;20028;-70
2021/04/24 02:02:39;;;;;;;19.90;11.07;;;;;;;1.13;100.00;96364.53;1019052;29;20442;-69
2021/04/24 02:03:11;;;;;;;18.60;10.53;;;;;;;1.14;100.00;96358.38;1018585;29;20043;-69
2021/04/24 02:03:41;;;;;;;22.33;11.25;;;;;;;1.12;100.00;96360.34;1027333;28;20035;-70
2021/04/24 02:04:12;;;;;;;20.60;10.97;;;;;;;1.16;100.00;96353.81;1030261;28;20030;-69
2021/04/24 02:04:43;;;;;;;18.42;10.60;;;;;;;1.13;100.00;96348.22;1022410;29;20102;-69
2021/04/24 02:05:14;;;;;;;21.10;10.90;;;;;;;1.15;100.00;96338.50;1022067;29;20580;-70
2021/04/24 02:05:45;;;;;;;23.58;11.15;;;;;;;1.21;100.00;96360.19;1019254;29;20076;-69
2021/04/24 02:06:15;;;;;;;18.53;10.20;;;;;;;1.16;100.00;96353.03;1023803;28;20190;-70
2021/04/24 02:06:46;;;;;;;21.07;10.23;;;;;;;1.18;100.00;96359.59;1026916;28;20027;-69
2021/04/24 02:07:16;;;;;;;19.13;9.90;;;;;;;1.16;100.00;96355.59;1019111;29;20040;-69
2021/04/24 02:07:57;;;;;;;22.50;10.93;;;;;;;1.11;100.00;96356.19;1023681;29;20066;-69
2021/04/24 02:08:34;;;;;;;20.75;11.18;;;;;;;1.09;100.00;96345.22;1020566;29;20035;-69
2021/04/24 02:09:08;;;;;;;19.17;9.90;;;;;;;1.08;100.00;96356.56;1024215;28;20623;-70
2021/04/24 02:09:38;;;;;;;23.85;10.45;;;;;;;1.04;100.00;96355.34;1031482;28;20026;-70
2021/04/24 02:10:10;;;;;;;21.90;11.07;;;;;;;1.03;100.00;96351.13;1031981;28;20101;-69
2021/04/24 02:10:42;;;;;;;20.63;11.52;;;;;;;1.01;100.00;96355.72;1034844;28;20073;-70
2021/04/24 02:11:12;;;;;;;21.98;11.70;;;;;;;0.91;100.00;96343.09;1030411;28;20679;-69
2021/04/24 02:12:10;;;;;;;23.20;11.20;;;;;;;0.93;100.00;96351.44;1027483;28;20035;-69
2021/04/24 02:12:40;;;;;;;16.58;9.85;;;;;;;0.93;100.00;96353.25;1023724;28;20031;-69
2021/04/24 02:13:21;;;;;;;19.17;11.07;;;;;;;0.92;100.00;96354.22;1030350;28;20142;-70
2021/04/24 02:13:52;;;;;;;20.77;11.10;;;;;;;0.97;100.00;96357.03;1023412;29;20604;-69
2021/04/24 02:14:22;;;;;;;19.37;9.67;;;;;;;0.87;100.00;96339.31;1019439;29;20019;-69
2021/04/24 02:14:53;;;;;;;22.53;10.97;;;;;;;0.92;100.00;96351.66;1025963;28;20130;-70
2021/04/24 02:15:24;;;;;;;22.23;10.97;;;;;;;0.98;100.00;96352.69;1019815;29;20103;-70
2021/04/24 02:15:54;;;;;;;24.67;10.93;;;;;;;0.90;100.00;96345.84;1023574;28;20437;-70
2021/04/24 02:16:25;;;;;;;23.13;10.57;;;;;;;1.02;100.00;96354.72;1023880;28;20027;-69
2021/04/24 02:16:55;;;;;;;18.97;11.37;;;;;;;0.99;100.00;96355.09;1019492;28;20027;-69
2021/04/24 02:17:26;;;;;;;19.20;10.40;;;;;;;0.96;100.00;96350.28;1023652;29;20020;-69
2021/04/24 02:17:56;;;;;;;19.27;9.80;;;;;;;1.05;100.00;96353.53;1020308;29;20035;-69
2021/04/24 02:18:27;;;;;;;18.47;10.50;;;;;;;1.01;100.00;96350.53;1020502;29;20063;-69
2021/04/24 02:18:58;;;;;;;18.97;10.50;;;;;;;0.99;100.00;96354.28;1027417;28;20027;-69
2021/04/24 02:19:28;;;;;;;18.60;10.00;;;;;;;0.97;100.00;96356.25;1024952;28;20133;-69
2021/04/24 02:19:59;;;;;;;16.67;9.47;;;;;;;0.98;100.00;96350.91;1023708;28;20031;-69
2021/04/24 02:20:29;;;;;;;15.93;9.43;;;;;;;0.96;100.00;96352.06;1030826;28;20610;-70
2021/04/24 02:21:00;;;;;;;20.23;9.57;;;;;;;0.96;100.00;96339.94;1023318;28;20019;-70
2021/04/24 02:21:30;;;;;;;19.90;9.50;;;;;;;0.96;100.00;96350.28;1027278;28;20031;-69
2021/04/24 02:22:00;;;;;;;19.80;9.97;;;;;;;1.01;100.00;96347.94;1027263;28;20476;-69
2021/04/24 02:22:31;;;;;;;18.43;9.87;;;;;;;0.99;100.00;96344.75;1031417;28;20168;-69
2021/04/24 02:23:02;;;;;;;20.43;9.90;;;;;;;0.98;100.00;96353.50;1028401;28;20093;-68
2021/04/24 02:23:33;;;;;;;20.33;10.77;;;;;;;0.86;100.00;96340.25;1023964;28;20640;-69
2021/04/24 02:24:04;;;;;;;19.33;9.73;;;;;;;0.94;100.00;96350.47;1023101;29;20019;-69
2021/04/24 02:24:41;;;;;;;17.03;9.47;;;;;;;0.91;100.00;96352.66;1023119;29;20039;-69